Time;durP1;ratioP1;P1;durP2;ratioP2;P2;SDS_P1;SDS_P2;PMS_P1;PMS_P2;Temp;Humidity;BMP_temperature;BMP_pressure;BME280_temperature;BME280_humidity;BME280_pressure;Samples;Min_cycle;Max_cycle;Signal;HPM_P1;HPM_P2
2022/02/14 00:01:25;;;;;;;2.97;2.40;;;1.00;60.70;;;;;;5069011;28;20239;-86
2022/02/14 00:04:34;;;;;;;3.00;1.93;;;0.80;60.30;;;;;;5060141;28;20194;-83
2022/02/14 00:07:10;;;;;;;3.10;2.27;;;0.70;60.30;;;;;;5065718;28;20246;-84
2022/02/14 00:09:37;;;;;;;3.20;2.30;;;0.70;59.90;;;;;;5059790;28;20202;-84
2022/02/14 00:12:10;;;;;;;3.60;2.40;;;0.60;60.90;;;;;;5072889;28;20201;-83
2022/02/14 00:14:37;;;;;;;4.70;2.30;;;0.40;62.10;;;;;;5068831;28;20239;-84
2022/02/14 00:17:15;;;;;;;2.83;1.83;;;0.20;64.70;;;;;;5067384;28;20213;-83
2022/02/14 00:19:42;;;;;;;2.90;2.30;;;0.10;64.60;;;;;;5056835;28;20208;-83
2022/02/14 00:22:11;;;;;;;2.53;1.93;;;-0.10;64.40;;;;;;5073453;28;20682;-82
2022/02/14 00:24:38;;;;;;;3.43;2.53;;;-0.10;65.40;;;;;;5078968;28;20201;-85
2022/02/14 00:27:05;;;;;;;3.43;1.90;;;-0.10;64.40;;;;;;5063119;28;20225;-83
2022/02/14 00:29:33;;;;;;;4.50;2.50;;;-0.10;66.00;;;;;;5058710;28;20268;-84
2022/02/14 00:32:05;;;;;;;4.43;2.00;;;-0.10;65.30;;;;;;5082043;28;20212;-83
2022/02/14 00:34:34;;;;;;;2.63;2.13;;;0.10;64.60;;;;;;5061669;28;20225;-87
2022/02/14 00:37:03;;;;;;;2.63;1.93;;;0.20;64.80;;;;;;5071877;28;20251;-86
2022/02/14 00:39:55;;;;;;;3.60;2.20;;;0.20;63.50;;;;;;5068489;28;20202;-85
2022/02/14 00:42:24;;;;;;;2.70;1.90;;;0.20;63.80;;;;;;5072348;28;20258;-83
2022/02/14 00:44:54;;;;;;;2.73;1.93;;;0.20;62.10;;;;;;5070056;28;21288;-85
2022/02/14 00:47:22;;;;;;;2.03;1.83;;;0.20;63.30;;;;;;5069549;28;20208;-88
2022/02/14 00:52:35;;;;;;;2.33;1.87;;;0.30;62.60;;;;;;5007906;28;20234;-83
2022/02/14 00:55:09;;;;;;;2.60;1.67;;;0.20;62.90;;;;;;5052604;28;20227;-83
2022/02/14 00:57:40;;;;;;;2.20;1.70;;;0.20;63.50;;;;;;5070001;28;20308;-83
2022/02/14 01:00:12;;;;;;;2.57;1.90;;;0.20;62.90;;;;;;5064148;28;20230;-84
2022/02/14 01:02:40;;;;;;;2.63;2.00;;;0.20;63.70;;;;;;5061283;28;20229;-85
2022/02/14 01:05:11;;;;;;;3.53;1.90;;;0.20;63.90;;;;;;5062889;28;20256;-83
2022/02/14 01:07:38;;;;;;;6.47;2.00;;;0.10;64.60;;;;;;5060926;28;20206;-82
2022/02/14 01:10:09;;;;;;;3.60;1.90;;;0.10;66.90;;;;;;5064057;28;20241;-82
2022/02/14 01:12:44;;;;;;;3.10;2.20;;;0.00;68.80;;;;;;5067541;28;20195;-85
2022/02/14 01:15:14;;;;;;;6.30;2.40;;;0.00;65.50;;;;;;5057645;28;20251;-86
2022/02/14 01:17:54;;;;;;;3.43;2.23;;;-0.10;67.00;;;;;;5063927;28;20212;-84
2022/02/14 01:20:21;;;;;;;3.27;2.20;;;-0.30;69.50;;;;;;5058242;28;20233;-83
2022/02/14 01:22:49;;;;;;;4.07;2.30;;;-0.30;64.10;;;;;;5064671;28;20191;-83
2022/02/14 01:25:17;;;;;;;3.17;1.93;;;-0.30;64.20;;;;;;5062511;28;20246;-85
2022/02/14 01:27:45;;;;;;;3.17;1.70;;;-0.30;61.30;;;;;;5064325;28;20560;-83
2022/02/14 01:30:12;;;;;;;4.10;2.13;;;-0.30;57.90;;;;;;5060003;28;20257;-85
2022/02/14 01:32:47;;;;;;;2.30;1.77;;;-0.30;60.00;;;;;;5065320;28;20199;-85
2022/02/14 01:35:28;;;;;;;2.60;1.70;;;-0.20;58.20;;;;;;5066683;28;20552;-91
2022/02/14 01:38:01;;;;;;;4.07;1.80;;;-0.20;58.50;;;;;;5062499;28;20190;-82
2022/02/14 01:40:30;;;;;;;2.47;2.00;;;-0.10;59.20;;;;;;5066075;28;20220;-82
2022/02/14 01:42:58;;;;;;;3.27;1.90;;;-0.10;55.40;;;;;;5058557;28;20268;-82
2022/02/14 01:45:28;;;;;;;2.23;1.70;;;-0.10;54.90;;;;;;5059014;28;20259;-86
2022/02/14 01:48:03;;;;;;;5.73;1.97;;;-0.10;53.30;;;;;;5068204;28;20202;-85
2022/02/14 01:50:30;;;;;;;1.70;1.47;;;-0.10;54.50;;;;;;5064993;28;20239;-83
2022/02/14 01:53:04;;;;;;;2.20;1.40;;;-0.10;50.50;;;;;;5083687;28;20236;-87
2022/02/14 01:55:33;;;;;;;2.13;1.70;;;0.00;50.90;;;;;;5065723;28;20253;-84
2022/02/14 01:58:02;;;;;;;1.73;1.40;;;-0.10;51.20;;;;;;5061359;28;20607;-83
2022/02/14 02:00:38;;;;;;;2.07;1.57;;;0.00;54.20;;;;;;5062711;28;20613;-85
2022/02/14 02:03:14;;;;;;;2.20;1.30;;;0.00;54.20;;;;;;5066706;28;20190;-83
2022/02/14 02:05:43;;;;;;;2.40;1.40;;;0.00;49.30;;;;;;5058774;28;20287;-83
2022/02/14 02:08:11;;;;;;;3.13;1.70;;;0.00;51.70;;;;;;5063475;28;20219;-84
2022/02/14 02:10:43;;;;;;;2.50;1.70;;;0.10;53.70;;;;;;5062922;28;20224;-86
2022/02/14 02:13:09;;;;;;;2.17;1.60;;;0.10;54.00;;;;;;5067182;28;20196;-84
2022/02/14 02:15:37;;;;;;;4.63;1.63;;;0.10;52.10;;;;;;5055610;28;20259;-82
2022/02/14 02:18:06;;;;;;;1.77;1.30;;;0.10;52.10;;;;;;5055362;28;20530;-82
2022/02/14 02:20:47;;;;;;;2.40;1.60;;;0.10;52.30;;;;;;5055677;28;20245;-82
2022/02/14 02:23:19;;;;;;;1.93;1.53;;;0.00;54.40;;;;;;5057858;28;20683;-85
2022/02/14 02:25:56;;;;;;;2.47;1.50;;;0.00;54.70;;;;;;5059715;28;20233;-82
2022/02/14 02:28:23;;;;;;;2.43;1.37;;;0.00;52.00;;;;;;5076073;28;20290;-84
2022/02/14 02:30:50;;;;;;;1.60;1.33;;;0.00;51.80;;;;;;5065167;28;20239;-84
2022/02/14 02:33:20;;;;;;;1.87;1.60;;;0.00;53.00;;;;;;5074265;28;20272;-82
2022/02/14 02:35:47;;;;;;;2.23;1.50;;;0.00;50.10;;;;;;5067770;28;20231;-82
2022/02/14 02:38:18;;;;;;;1.77;1.50;;;0.00;50.40;;;;;;5066885;28;20196;-86
2022/02/14 02:40:47;;;;;;;2.30;1.57;;;0.10;50.30;;;;;;5061839;28;20254;-83
2022/02/14 02:43:19;;;;;;;2.33;1.50;;;0.00;49.20;;;;;;5064062;28;20244;-88
2022/02/14 02:45:47;;;;;;;1.70;1.20;;;0.00;50.60;;;;;;5077555;28;20292;-83
2022/02/14 02:48:16;;;;;;;1.23;1.13;;;0.10;49.10;;;;;;5064327;28;20228;-83
2022/02/14 02:53:41;;;;;;;1.53;1.30;;;0.10;48.80;;;;;;5054117;28;20203;-83
2022/02/14 02:59:03;;;;;;;1.60;1.07;;;0.10;47.50;;;;;;5061103;28;20665;-83
2022/02/14 03:01:42;;;;;;;1.50;1.30;;;0.20;46.80;;;;;;5077642;28;20252;-83
2022/02/14 03:04:13;;;;;;;3.93;1.43;;;0.20;46.90;;;;;;5075815;28;20232;-83
2022/02/14 03:09:42;;;;;;;2.67;1.40;;;0.20;49.10;;;;;;5069549;28;20205;-82
2022/02/14 03:12:23;;;;;;;2.00;1.30;;;0.20;49.20;;;;;;5067810;28;20217;-86
2022/02/14 03:14:53;;;;;;;2.37;1.60;;;0.20;49.30;;;;;;5063127;28;20292;-83
2022/02/14 03:17:21;;;;;;;1.50;1.40;;;0.10;48.00;;;;;;5068907;28;20225;-84
2022/02/14 03:19:54;;;;;;;2.00;1.70;;;0.10;48.90;;;;;;5070021;28;20198;-86
2022/02/14 03:22:21;;;;;;;2.50;1.50;;;0.10;47.30;;;;;;5059501;28;20725;-82
2022/02/14 03:24:54;;;;;;;1.50;1.40;;;0.00;47.80;;;;;;5062980;28;20786;-83
2022/02/14 03:27:21;;;;;;;2.33;1.50;;;0.00;46.90;;;;;;5069244;28;20386;-82
2022/02/14 03:30:13;;;;;;;3.33;1.40;;;0.00;46.90;;;;;;5070650;28;20238;-82
2022/02/14 03:32:41;;;;;;;1.97;1.30;;;0.10;46.70;;;;;;5053074;28;20233;-83
2022/02/14 03:35:48;;;;;;;;;;;;;;;;;;;;;
2022/02/14 03:38:20;;;;;;;1.50;1.30;;;0.10;44.60;;;;;;5057897;28;20241;-82
2022/02/14 03:40:48;;;;;;;2.17;1.30;;;0.10;45.20;;;;;;5080516;28;20212;-83
2022/02/14 03:43:50;;;;;;;1.37;1.27;;;0.20;46.30;;;;;;5072525;28;20227;-86
2022/02/14 03:46:44;;;;;;;1.93;1.30;;;0.20;45.60;;;;;;5060606;28;20227;-88
2022/02/14 03:49:13;;;;;;;1.37;1.10;;;0.30;46.70;;;;;;5070044;28;20218;-83
2022/02/14 03:51:40;;;;;;;1.57;1.40;;;0.20;44.80;;;;;;5065442;28;20239;-84
2022/02/14 03:54:08;;;;;;;1.40;1.30;;;0.10;45.30;;;;;;5069440;28;20195;-83
2022/02/14 03:56:47;;;;;;;1.30;1.20;;;0.10;45.00;;;;;;5070849;28;20237;-84
2022/02/14 03:59:14;;;;;;;1.47;1.30;;;0.10;44.30;;;;;;5074842;28;20203;-87
2022/02/14 04:02:12;;;;;;;1.80;1.40;;;0.10;44.40;;;;;;5073729;28;20257;-82
2022/02/14 04:05:12;;;;;;;1.63;1.50;;;0.10;45.30;;;;;;5066087;28;20186;-83
2022/02/14 04:10:30;;;;;;;3.00;1.40;;;0.20;45.00;;;;;;5078757;28;20266;-84
2022/02/14 04:13:04;;;;;;;1.73;1.27;;;0.20;44.10;;;;;;5063918;28;20219;-82
2022/02/14 04:15:33;;;;;;;1.90;1.33;;;0.10;44.30;;;;;;5068078;28;20239;-84
2022/02/14 04:18:02;;;;;;;3.63;1.60;;;0.10;42.90;;;;;;5068876;28;20239;-82
2022/02/14 04:20:29;;;;;;;1.60;1.40;;;0.10;44.70;;;;;;5071771;28;20261;-83
2022/02/14 04:22:56;;;;;;;3.00;1.30;;;0.10;45.90;;;;;;5078104;28;20209;-82
2022/02/14 04:25:40;;;;;;;1.80;1.30;;;0.10;45.70;;;;;;5050733;28;20293;-83
2022/02/14 04:28:45;;;;;;;2.87;1.30;;;0.20;40.60;;;;;;5070593;28;20205;-82
2022/02/14 04:31:21;;;;;;;1.43;1.10;;;0.20;42.40;;;;;;5057264;28;20230;-82
2022/02/14 04:36:54;;;;;;;;;;;;;;;;;;;;;
2022/02/14 04:39:30;;;;;;;3.83;1.40;;;0.40;37.40;;;;;;5070516;28;20667;-82
2022/02/14 04:41:57;;;;;;;2.67;1.03;;;0.40;40.50;;;;;;5076159;28;20244;-82
2022/02/14 04:44:45;;;;;;;1.70;1.40;;;0.50;37.40;;;;;;5069821;28;20764;-83
2022/02/14 04:47:15;;;;;;;1.10;1.07;;;0.50;38.30;;;;;;5065687;28;20244;-82
2022/02/14 04:49:44;;;;;;;1.53;1.33;;;0.50;38.80;;;;;;5069796;28;20232;-83
2022/02/14 04:55:00;;;;;;;4.03;1.10;;;0.50;34.80;;;;;;5075747;28;20557;-82
2022/02/14 04:57:28;;;;;;;2.30;1.10;;;0.60;34.40;;;;;;5065792;28;20273;-85
2022/02/14 05:00:05;;;;;;;1.83;1.07;;;0.60;33.60;;;;;;5052497;28;20240;-84
2022/02/14 05:02:39;;;;;;;1.50;1.20;;;0.70;33.80;;;;;;5069109;28;20208;-83
2022/02/14 05:05:09;;;;;;;2.07;1.10;;;0.70;32.90;;;;;;5062818;28;20229;-82
2022/02/14 05:10:28;;;;;;;2.63;1.30;;;0.80;33.80;;;;;;5064401;28;20235;-86
2022/02/14 05:12:55;;;;;;;1.90;1.17;;;0.80;32.30;;;;;;5041282;28;20294;-82
2022/02/14 05:15:30;;;;;;;2.10;1.10;;;0.80;32.80;;;;;;5036677;28;20227;-82
2022/02/14 05:17:58;;;;;;;2.03;1.30;;;0.80;32.80;;;;;;5047350;28;20205;-83
2022/02/14 05:20:30;;;;;;;1.13;1.03;;;0.80;33.00;;;;;;5048706;28;20226;-82
2022/02/14 05:22:57;;;;;;;3.10;1.20;;;0.80;32.80;;;;;;5048667;28;20238;-86
2022/02/14 05:25:25;;;;;;;1.07;0.97;;;0.80;32.20;;;;;;5047488;28;20229;-82
2022/02/14 05:27:58;;;;;;;1.10;1.00;;;0.80;33.20;;;;;;5048634;28;20232;-86
2022/02/14 05:30:25;;;;;;;1.67;1.27;;;0.80;34.80;;;;;;5048330;28;20685;-82
2022/02/14 05:33:01;;;;;;;2.90;1.13;;;0.70;34.40;;;;;;5047900;28;20201;-83
2022/02/14 05:35:29;;;;;;;1.20;1.10;;;0.70;32.80;;;;;;5041804;28;20265;-82
2022/02/14 05:37:56;;;;;;;3.47;1.10;;;0.70;34.10;;;;;;5053938;28;20676;-83
2022/02/14 05:40:23;;;;;;;2.97;1.17;;;0.70;34.90;;;;;;5045856;28;20265;-85
2022/02/14 05:42:51;;;;;;;1.83;1.30;;;0.70;36.80;;;;;;5038066;28;20261;-82
2022/02/14 05:45:18;;;;;;;1.83;1.20;;;0.70;34.90;;;;;;5042104;28;20245;-84
2022/02/14 05:47:45;;;;;;;3.07;1.30;;;0.70;35.70;;;;;;5040102;28;20209;-86
2022/02/14 05:50:19;;;;;;;1.33;1.23;;;0.70;35.20;;;;;;5048167;28;20225;-85
2022/02/14 05:52:50;;;;;;;2.07;1.20;;;0.70;34.30;;;;;;5044420;28;20213;-83
2022/02/14 05:55:21;;;;;;;1.33;1.20;;;0.70;38.00;;;;;;5044716;28;20253;-83
2022/02/14 05:57:47;;;;;;;2.33;1.43;;;0.70;38.80;;;;;;5044624;28;20223;-83
2022/02/14 06:00:16;;;;;;;3.10;1.37;;;0.80;38.20;;;;;;5044122;28;20748;-84
2022/02/14 06:02:43;;;;;;;4.07;1.40;;;0.80;38.90;;;;;;5046166;28;20197;-83
2022/02/14 06:05:10;;;;;;;1.73;1.10;;;0.80;37.50;;;;;;5044636;28;20280;-84
2022/02/14 06:07:37;;;;;;;1.87;1.47;;;0.80;39.80;;;;;;5039866;28;20258;-83
2022/02/14 06:10:19;;;;;;;2.30;1.50;;;0.80;37.30;;;;;;5041359;28;20228;-82
2022/02/14 06:12:56;;;;;;;1.87;1.30;;;0.90;38.00;;;;;;5040573;28;20221;-83
2022/02/14 06:15:23;;;;;;;1.63;1.30;;;0.90;38.80;;;;;;5035823;28;20234;-83
2022/02/14 06:17:52;;;;;;;3.33;1.57;;;0.90;38.60;;;;;;5039145;28;20249;-84
2022/02/14 06:20:30;;;;;;;4.30;1.70;;;1.00;35.90;;;;;;5043057;28;20256;-84
2022/02/14 06:22:57;;;;;;;2.37;1.30;;;1.10;36.80;;;;;;5043739;28;20190;-84
2022/02/14 06:25:27;;;;;;;2.07;1.40;;;1.20;37.60;;;;;;5034398;28;20280;-84
2022/02/14 06:27:54;;;;;;;2.67;1.33;;;1.30;37.00;;;;;;5041926;28;20329;-83
2022/02/14 06:30:27;;;;;;;2.57;1.43;;;1.50;39.20;;;;;;5043600;28;20260;-83
2022/02/14 06:32:54;;;;;;;4.10;1.60;;;1.60;35.10;;;;;;5042081;28;20598;-83
2022/02/14 06:35:22;;;;;;;2.33;1.47;;;1.70;39.00;;;;;;5042068;28;20231;-84
2022/02/14 06:37:49;;;;;;;2.20;1.57;;;1.70;35.90;;;;;;5047010;28;20297;-83
2022/02/14 06:40:18;;;;;;;5.30;1.70;;;1.70;35.10;;;;;;5035695;28;20236;-83
2022/02/14 06:42:48;;;;;;;5.80;1.90;;;1.80;33.40;;;;;;5047796;28;20198;-83
2022/02/14 06:45:15;;;;;;;2.97;1.83;;;1.90;36.90;;;;;;5047713;28;20317;-85
2022/02/14 06:47:43;;;;;;;4.53;1.80;;;2.00;35.50;;;;;;5048649;28;20209;-83
2022/02/14 06:50:10;;;;;;;3.87;2.00;;;2.00;35.50;;;;;;5047814;28;20708;-86
2022/02/14 06:52:37;;;;;;;4.33;1.80;;;2.00;31.80;;;;;;5048880;28;20258;-83
2022/02/14 06:55:06;;;;;;;3.60;1.30;;;2.00;32.80;;;;;;5047809;28;20253;-84
2022/02/14 06:57:33;;;;;;;2.30;1.50;;;2.10;32.30;;;;;;5043214;28;20276;-84
2022/02/14 07:00:02;;;;;;;3.57;1.70;;;2.20;36.50;;;;;;5047873;28;20337;-86
2022/02/14 07:02:29;;;;;;;4.30;1.60;;;2.30;30.60;;;;;;5047808;28;20210;-84
2022/02/14 07:04:57;;;;;;;2.43;1.70;;;2.30;33.50;;;;;;5034724;28;20237;-83
2022/02/14 07:07:26;;;;;;;2.20;1.47;;;2.40;31.60;;;;;;5050445;28;20210;-84
2022/02/14 07:09:53;;;;;;;3.67;1.50;;;2.40;30.90;;;;;;5047687;28;20322;-85
2022/02/14 07:12:20;;;;;;;2.40;1.57;;;2.60;29.80;;;;;;5040523;28;20636;-88
2022/02/14 07:14:47;;;;;;;5.47;1.93;;;2.70;30.10;;;;;;5045805;28;20257;-83
2022/02/14 07:17:15;;;;;;;2.63;1.90;;;2.90;31.60;;;;;;5046493;28;20385;-85
2022/02/14 07:19:42;;;;;;;5.00;1.70;;;3.00;30.30;;;;;;5041295;28;20205;-83
2022/02/14 07:22:09;;;;;;;3.50;1.87;;;3.20;28.90;;;;;;5044401;28;20285;-83
2022/02/14 07:24:36;;;;;;;4.70;2.07;;;3.30;30.00;;;;;;5042910;28;20254;-83
2022/02/14 07:27:03;;;;;;;3.10;1.80;;;3.50;31.00;;;;;;5043632;28;20205;-82
2022/02/14 07:29:29;;;;;;;3.53;1.80;;;3.70;26.50;;;;;;5039655;28;20198;-85
2022/02/14 07:31:56;;;;;;;3.53;1.83;;;3.70;25.80;;;;;;5044497;28;20294;-88
2022/02/14 07:34:27;;;;;;;5.07;1.90;;;3.70;27.70;;;;;;5044270;28;20282;-81
2022/02/14 07:36:54;;;;;;;2.93;1.83;;;4.00;27.70;;;;;;5043764;28;20225;-82
2022/02/14 07:39:21;;;;;;;4.77;1.83;;;4.00;27.40;;;;;;5044790;28;20209;-81
2022/02/14 07:41:48;;;;;;;4.97;1.93;;;4.10;24.20;;;;;;5039727;28;20650;-81
2022/02/14 07:44:15;;;;;;;6.53;1.97;;;4.30;29.60;;;;;;5026825;28;20526;-81
2022/02/14 07:46:42;;;;;;;4.83;1.90;;;4.50;28.00;;;;;;5035969;28;20288;-85
2022/02/14 07:49:11;;;;;;;2.37;1.60;;;4.70;27.00;;;;;;5042390;28;20261;-82
2022/02/14 07:51:40;;;;;;;5.03;1.70;;;5.10;22.80;;;;;;5043054;28;20267;-86
2022/02/14 07:54:07;;;;;;;2.30;1.50;;;5.40;28.50;;;;;;5036189;28;20227;-85
2022/02/14 07:56:42;;;;;;;4.57;1.73;;;5.40;25.60;;;;;;5040287;28;20649;-86
2022/02/14 07:59:09;;;;;;;2.23;1.70;;;5.40;25.60;;;;;;5035932;28;20282;-85
2022/02/14 08:01:48;;;;;;;4.57;1.97;;;5.50;24.50;;;;;;5042705;28;20636;-84
2022/02/14 08:04:14;;;;;;;3.57;2.03;;;5.70;28.30;;;;;;5032474;28;20286;-86
2022/02/14 08:06:45;;;;;;;3.40;1.80;;;6.00;26.20;;;;;;5034895;28;20226;-84
2022/02/14 08:09:12;;;;;;;2.30;1.73;;;6.00;22.60;;;;;;5044744;28;20210;-85
2022/02/14 08:11:39;;;;;;;3.83;1.80;;;6.00;23.70;;;;;;5042683;28;20283;-84
2022/02/14 08:14:06;;;;;;;6.07;2.27;;;5.80;21.90;;;;;;5046434;28;20209;-88
2022/02/14 08:16:34;;;;;;;5.00;1.90;;;5.90;26.30;;;;;;5034129;28;20226;-86
2022/02/14 08:19:01;;;;;;;4.83;2.20;;;6.00;25.60;;;;;;5039909;28;20250;-85
2022/02/14 08:21:29;;;;;;;5.40;1.97;;;6.20;22.20;;;;;;5042371;28;20235;-84
2022/02/14 08:23:57;;;;;;;4.43;1.73;;;6.30;25.70;;;;;;5046388;28;20219;-84
2022/02/14 08:26:25;;;;;;;3.42;1.80;;;6.30;24.40;;;;;;5047461;28;20253;-90
2022/02/14 08:28:52;;;;;;;5.73;2.10;;;6.30;23.60;;;;;;5048335;28;20234;-86
2022/02/14 08:31:19;;;;;;;3.38;2.13;;;6.30;22.30;;;;;;5046116;28;20238;-85
2022/02/14 08:33:52;;;;;;;5.40;1.90;;;6.20;22.20;;;;;;5047914;28;20237;-83
2022/02/14 08:36:19;;;;;;;2.75;1.90;;;6.30;25.30;;;;;;5047433;28;20236;-85
2022/02/14 08:38:47;;;;;;;10.00;2.03;;;6.70;25.30;;;;;;5048020;28;20257;-84
2022/02/14 08:41:52;;;;;;;6.30;1.88;;;6.90;22.80;;;;;;5048373;28;20234;-83
2022/02/14 08:44:23;;;;;;;2.47;2.03;;;6.80;25.10;;;;;;5047849;28;20227;-83
2022/02/14 08:46:54;;;;;;;3.88;1.85;;;7.10;27.60;;;;;;5047864;28;20690;-86
2022/02/14 08:49:37;;;;;;;5.35;1.95;;;7.30;26.10;;;;;;5049643;28;20214;-83
2022/02/14 08:52:06;;;;;;;2.92;1.80;;;7.40;24.00;;;;;;5049184;28;20681;-84
2022/02/14 08:54:34;;;;;;;8.02;2.15;;;7.20;23.00;;;;;;5048560;28;20237;-84
2022/02/14 08:57:03;;;;;;;4.68;2.13;;;7.20;23.00;;;;;;5048879;28;20642;-84
2022/02/14 08:59:31;;;;;;;3.65;1.88;;;7.60;26.20;;;;;;5047750;28;20684;-85
2022/02/14 09:02:03;;;;;;;3.92;1.90;;;8.20;22.30;;;;;;5048121;28;20238;-85
2022/02/14 09:04:31;;;;;;;4.70;1.88;;;8.70;19.40;;;;;;5049341;28;20273;-84
2022/02/14 09:14:34;;;;;;;6.15;1.80;;;9.30;17.70;;;;;;5064384;28;20217;-84
2022/02/14 09:36:47;;;;;;;2.88;1.98;;;17.20;9.10;;;;;;5022959;28;20260;-91
2022/02/14 09:39:14;;;;;;;3.22;1.95;;;18.70;8.60;;;;;;5070272;28;20973;-84
2022/02/14 09:41:41;;;;;;;3.78;2.00;;;19.30;5.10;;;;;;5107497;28;20228;-80
2022/02/14 09:44:08;;;;;;;2.22;2.00;;;20.40;5.20;;;;;;5123813;28;20264;-85
2022/02/14 09:47:00;;;;;;;3.85;2.40;;;20.00;4.10;;;;;;5116101;28;20248;-81
2022/02/14 09:49:30;;;;;;;5.13;2.13;;;19.60;6.90;;;;;;5100587;28;20315;-80
2022/02/14 09:51:57;;;;;;;4.10;1.98;;;19.60;5.40;;;;;;5098344;28;20223;-83
2022/02/14 09:54:24;;;;;;;7.70;2.58;;;20.60;6.70;;;;;;5113434;28;20206;-80
2022/02/14 09:56:51;;;;;;;5.85;2.40;;;19.90;3.20;;;;;;5096216;28;20222;-83
2022/02/14 09:59:18;;;;;;;2.70;2.33;;;18.70;5.70;;;;;;5094075;28;20222;-80
2022/02/14 10:01:46;;;;;;;3.00;2.10;;;19.60;5.80;;;;;;5113862;28;20238;-83
2022/02/14 10:04:13;;;;;;;4.40;2.35;;;18.30;5.40;;;;;;5099333;28;20557;-82
2022/02/14 10:06:44;;;;;;;8.93;2.20;;;17.30;7.50;;;;;;5099939;28;20954;-84
2022/02/14 10:09:15;;;;;;;3.90;1.98;;;17.30;8.10;;;;;;5101172;28;20204;-87
2022/02/14 10:12:03;;;;;;;4.28;2.03;;;16.90;8.10;;;;;;5104938;28;20745;-86
2022/02/14 10:14:30;;;;;;;2.47;1.98;;;15.90;8.30;;;;;;5106358;28;20204;-86
2022/02/14 10:17:09;;;;;;;3.33;2.13;;;14.80;7.70;;;;;;5107026;28;20228;-85
2022/02/14 10:19:45;;;;;;;2.65;1.88;;;14.60;8.70;;;;;;5107409;28;20228;-85
2022/02/14 10:25:48;;;;;;;3.80;2.00;;;13.60;9.70;;;;;;5095136;28;20208;-86
2022/02/14 11:16:48;;;;;;;3.13;1.80;;;13.40;10.50;;;;;;5003087;28;20226;-89
2022/02/14 11:26:55;;;;;;;;;;;;;;;;;;;;;
2022/02/14 11:29:52;;;;;;;4.38;1.73;;;12.90;11.60;;;;;;5006109;28;20230;-85
2022/02/14 11:32:38;;;;;;;4.72;2.15;;;13.20;12.90;;;;;;5008878;28;20204;-85
2022/02/14 11:35:20;;;;;;;2.05;1.63;;;13.30;11.90;;;;;;5016089;28;20270;-85
2022/02/14 11:41:35;;;;;;;4.43;1.70;;;13.60;11.60;;;;;;4959731;28;20221;-85
2022/02/14 11:48:10;;;;;;;3.72;1.75;;;13.50;13.00;;;;;;5067335;28;20189;-85
2022/02/14 11:51:09;;;;;;;2.58;1.55;;;13.50;12.30;;;;;;5050250;28;20201;-85
2022/02/14 11:53:47;;;;;;;4.85;1.80;;;13.30;13.20;;;;;;5054016;28;20224;-85
2022/02/14 11:57:18;;;;;;;4.93;1.80;;;13.30;12.40;;;;;;5067313;28;20236;-84
2022/02/14 12:14:29;;;;;;;;;;;;;;;;;;;;;
2022/02/14 12:20:43;;;;;;;4.65;1.63;;;13.40;12.10;;;;;;4948369;29;20233;-84
2022/02/14 12:23:28;;;;;;;3.35;1.80;;;13.40;13.10;;;;;;4953337;29;20291;-84
2022/02/14 12:26:00;;;;;;;2.75;1.70;;;13.30;12.00;;;;;;5002035;28;20198;-85
2022/02/14 12:28:35;;;;;;;4.95;1.70;;;13.30;12.00;;;;;;5052422;28;20198;-85
2022/02/14 12:31:23;;;;;;;2.50;1.70;;;13.50;11.80;;;;;;5066890;28;20701;-85
2022/02/14 12:34:54;;;;;;;;;;;;;;;;;;;;;
2022/02/14 12:38:02;;;;;;;4.90;1.80;;;13.60;11.90;;;;;;5069784;28;20208;-86
2022/02/14 12:56:05;;;;;;;2.90;1.52;;;13.90;11.90;;;;;;5104751;28;20253;-85
2022/02/14 13:05:36;;;;;;;2.88;1.50;;;14.10;11.50;;;;;;5092682;28;20191;-82
2022/02/14 13:43:00;;;;;;;7.05;3.22;;;14.00;16.40;;;;;;5055191;28;20272;-83
2022/02/14 14:36:18;;;;;;;5.97;2.55;;;12.90;15.70;;;;;;5083496;28;20231;-84
2022/02/14 14:45:30;;;;;;;4.55;3.08;;;12.90;16.20;;;;;;5065826;28;20232;-84
2022/02/14 14:50:32;;;;;;;5.85;3.10;;;12.80;16.80;;;;;;5929057;22;20235;-85
2022/02/14 14:53:05;;;;;;;8.48;3.40;;;12.70;21.60;;;;;;5054772;28;20197;-85
2022/02/14 14:59:06;;;;;;;7.95;3.92;;;12.40;24.60;;;;;;5084202;28;20204;-84
2022/02/14 15:01:36;;;;;;;7.72;3.95;;;12.30;25.60;;;;;;5073224;28;20311;-84
2022/02/14 15:04:05;;;;;;;14.48;4.35;;;12.30;27.60;;;;;;5070716;28;20711;-86
2022/02/14 15:06:33;;;;;;;12.18;4.55;;;12.20;28.70;;;;;;5073281;28;20217;-85
2022/02/14 15:09:02;;;;;;;9.55;4.10;;;12.10;30.50;;;;;;5075331;28;20193;-86
2022/02/14 15:11:28;;;;;;;5.70;4.20;;;12.10;30.90;;;;;;5072927;28;20218;-85
2022/02/14 15:17:18;;;;;;;14.07;4.70;;;11.90;31.20;;;;;;5082831;28;20212;-85
2022/02/14 15:19:46;;;;;;;8.27;4.57;;;11.80;31.90;;;;;;5082544;28;20209;-84
2022/02/14 15:22:13;;;;;;;13.07;4.30;;;11.60;31.30;;;;;;5081651;28;20201;-84
2022/02/14 15:24:44;;;;;;;7.65;4.38;;;11.60;30.90;;;;;;5081354;28;20197;-86
2022/02/14 15:27:11;;;;;;;8.70;4.15;;;11.50;30.90;;;;;;5080772;28;20190;-86
2022/02/14 15:29:39;;;;;;;7.57;4.13;;;11.50;30.70;;;;;;5084765;28;20202;-86
2022/02/14 15:32:10;;;;;;;13.10;4.60;;;11.50;29.80;;;;;;5087267;28;20209;-85
2022/02/14 15:34:38;;;;;;;13.40;3.90;;;11.40;30.90;;;;;;5083219;28;20213;-85
2022/02/14 15:37:05;;;;;;;10.00;4.65;;;11.30;31.20;;;;;;5083835;28;20261;-86
2022/02/14 15:39:35;;;;;;;8.57;4.07;;;11.30;32.50;;;;;;5081262;28;20739;-85
2022/02/14 15:42:05;;;;;;;11.65;4.32;;;11.30;30.90;;;;;;5083245;28;20237;-86
2022/02/14 15:44:33;;;;;;;14.20;4.65;;;11.30;30.60;;;;;;5088382;28;20201;-86
2022/02/14 15:47:01;;;;;;;9.32;4.85;;;11.20;31.20;;;;;;5086056;28;20225;-84
2022/02/14 15:49:34;;;;;;;7.00;4.40;;;11.10;32.50;;;;;;5079379;28;20297;-89
2022/02/14 15:52:02;;;;;;;11.68;4.25;;;10.90;33.20;;;;;;5045744;28;20248;-85
2022/02/14 15:54:30;;;;;;;13.82;4.53;;;10.70;33.90;;;;;;5076297;28;20205;-85
2022/02/14 15:57:07;;;;;;;14.00;5.30;;;10.60;35.90;;;;;;5070236;28;20293;-85
2022/02/14 15:59:34;;;;;;;10.63;4.90;;;10.40;38.00;;;;;;5076056;28;20215;-86
2022/02/14 16:02:02;;;;;;;11.30;4.85;;;10.30;39.80;;;;;;5069936;28;20293;-85
2022/02/14 16:04:35;;;;;;;11.20;4.85;;;10.10;39.60;;;;;;5065745;28;20227;-86
2022/02/14 16:07:04;;;;;;;12.05;5.15;;;9.90;42.30;;;;;;5072852;28;20249;-86
2022/02/14 16:09:31;;;;;;;12.05;5.45;;;9.80;43.70;;;;;;5073914;28;20265;-85
2022/02/14 16:11:57;;;;;;;14.35;5.90;;;9.70;44.90;;;;;;5069939;28;20218;-85
2022/02/14 16:14:26;;;;;;;14.02;5.18;;;9.60;45.40;;;;;;5072496;28;20270;-84
2022/02/14 16:16:53;;;;;;;13.93;5.25;;;9.50;45.80;;;;;;5073510;28;20285;-87
2022/02/14 16:19:20;;;;;;;17.10;5.80;;;9.50;47.90;;;;;;5056151;28;20257;-89
2022/02/14 16:21:48;;;;;;;13.45;5.50;;;9.40;47.80;;;;;;5082949;28;20252;-85
2022/02/14 16:24:18;;;;;;;13.13;4.72;;;9.40;47.80;;;;;;5075345;28;20236;-85
2022/02/14 16:26:47;;;;;;;12.65;4.60;;;9.40;47.80;;;;;;5079093;28;20221;-85
2022/02/14 16:29:15;;;;;;;8.02;4.30;;;9.40;47.80;;;;;;5075571;28;20220;-85
2022/02/14 16:31:44;;;;;;;9.05;4.30;;;9.40;47.90;;;;;;5075665;28;20244;-85
2022/02/14 16:34:11;;;;;;;6.45;4.80;;;9.40;47.80;;;;;;5071723;28;20285;-86
2022/02/14 16:36:38;;;;;;;7.25;4.70;;;9.50;47.60;;;;;;5078126;28;20248;-85
2022/02/14 16:39:05;;;;;;;8.32;4.88;;;9.40;47.80;;;;;;5082024;28;20262;-84
2022/02/14 16:41:32;;;;;;;10.00;5.50;;;9.40;47.80;;;;;;5079358;28;20240;-86
2022/02/14 16:44:02;;;;;;;8.50;4.80;;;9.30;47.70;;;;;;5079752;28;20855;-84
2022/02/14 16:46:28;;;;;;;11.52;5.15;;;9.30;48.90;;;;;;5085868;28;20221;-84
2022/02/14 16:48:58;;;;;;;8.18;4.97;;;9.10;48.30;;;;;;5083961;28;20688;-86
2022/02/14 16:51:25;;;;;;;8.20;4.68;;;9.00;51.70;;;;;;5059396;28;20274;-85
2022/02/14 16:54:29;;;;;;;16.73;5.18;;;8.90;52.30;;;;;;5063789;28;20213;-84
2022/02/14 16:56:56;;;;;;;9.93;4.53;;;8.90;52.50;;;;;;5062919;28;20284;-84
2022/02/14 16:59:24;;;;;;;8.75;4.70;;;8.90;53.00;;;;;;5069625;28;20332;-86
2022/02/14 17:01:53;;;;;;;13.27;4.70;;;9.00;52.20;;;;;;5073068;28;20198;-84
2022/02/14 17:04:34;;;;;;;12.88;4.93;;;9.00;52.10;;;;;;5072216;28;20209;-84
2022/02/14 17:07:11;;;;;;;12.25;5.38;;;9.10;51.70;;;;;;5082798;28;20268;-84
2022/02/14 17:09:39;;;;;;;14.77;5.28;;;9.10;52.90;;;;;;5077155;28;20605;-85
2022/02/14 17:12:07;;;;;;;10.02;5.18;;;9.00;52.30;;;;;;5055291;28;20224;-85
2022/02/14 17:14:36;;;;;;;6.80;4.65;;;8.90;53.00;;;;;;5065837;28;20212;-85
2022/02/14 17:17:04;;;;;;;9.00;4.40;;;8.80;53.40;;;;;;5061148;28;20557;-83
2022/02/14 17:19:31;;;;;;;9.98;4.78;;;8.80;53.70;;;;;;5061726;28;20214;-84
2022/02/14 17:22:46;;;;;;;9.02;4.68;;;8.80;55.30;;;;;;5062602;28;20256;-84
2022/02/14 17:25:16;;;;;;;9.02;4.75;;;8.70;54.50;;;;;;5065829;28;20264;-85
2022/02/14 17:27:43;;;;;;;12.27;4.85;;;8.80;54.90;;;;;;5070953;28;20276;-87
2022/02/14 17:30:25;;;;;;;9.07;4.93;;;8.70;55.10;;;;;;5073202;28;20260;-84
2022/02/14 17:32:52;;;;;;;11.05;5.22;;;8.70;55.30;;;;;;5076413;28;20197;-85
2022/02/14 17:35:20;;;;;;;8.63;5.28;;;8.70;54.90;;;;;;5074144;28;20237;-89
2022/02/14 17:37:48;;;;;;;10.38;5.28;;;8.60;54.90;;;;;;5079034;28;20193;-85
2022/02/14 17:40:31;;;;;;;9.13;5.32;;;8.60;55.30;;;;;;5078786;28;20251;-84
2022/02/14 17:43:01;;;;;;;10.80;5.00;;;8.60;55.40;;;;;;5056076;28;20245;-84
2022/02/14 17:45:28;;;;;;;9.27;5.43;;;8.50;55.60;;;;;;5080602;28;20584;-84